Time;durP1;ratioP1;P1;durP2;ratioP2;P2;SDS_P1;SDS_P2;PMS_P1;PMS_P2;Temp;Humidity;BMP_temperature;BMP_pressure;BME280_temperature;BME280_humidity;BME280_pressure;Samples;Min_cycle;Max_cycle;Signal;HPM_P1;HPM_P2
2020/12/24 00:00:01;;;;;;;44.13;28.62;;;;;;;4.33;87.10;99743.69;1740971;81;25576;-79
2020/12/24 00:02:27;;;;;;;47.55;29.20;;;;;;;4.33;87.13;99736.74;1736760;81;25799;-79
2020/12/24 00:04:53;;;;;;;42.05;27.22;;;;;;;4.35;87.18;99736.13;1736521;81;25671;-78
2020/12/24 00:07:20;;;;;;;48.23;31.35;;;;;;;4.36;87.16;99734.36;1735257;81;26450;-78
2020/12/24 00:09:46;;;;;;;47.00;29.32;;;;;;;4.34;87.20;99724.65;1736405;81;26354;-78
2020/12/24 00:12:13;;;;;;;50.67;28.25;;;;;;;4.33;87.38;99724.30;1737765;82;25834;-79
2020/12/24 00:14:41;;;;;;;44.88;28.77;;;;;;;4.33;87.39;99725.09;1727239;81;26178;-78
2020/12/24 00:17:08;;;;;;;43.20;28.25;;;;;;;4.34;87.48;99718.18;1739227;80;25959;-78
2020/12/24 00:19:34;;;;;;;46.60;29.00;;;;;;;4.35;87.52;99705.09;1734911;80;25763;-79
2020/12/24 00:22:01;;;;;;;45.50;28.70;;;;;;;4.37;87.47;99710.13;1735772;81;25782;-78
2020/12/24 00:24:27;;;;;;;44.98;28.83;;;;;;;4.38;87.62;99702.22;1730893;81;26211;-78
2020/12/24 00:26:53;;;;;;;44.73;30.12;;;;;;;4.41;87.68;99694.16;1738744;81;26512;-78
2020/12/24 00:29:20;;;;;;;49.48;30.35;;;;;;;4.44;87.74;99690.48;1736745;80;25895;-77
2020/12/24 00:31:46;;;;;;;46.08;28.77;;;;;;;4.47;87.83;99686.80;1738344;81;26674;-78
2020/12/24 00:34:13;;;;;;;47.50;30.25;;;;;;;4.50;87.91;99678.30;1737500;81;25844;-78
2020/12/24 00:36:39;;;;;;;51.55;30.77;;;;;;;4.52;88.03;99674.25;1732471;81;25800;-78
2020/12/24 00:39:06;;;;;;;52.23;31.82;;;;;;;4.52;88.04;99661.31;1730323;82;25830;-79
2020/12/24 00:41:32;;;;;;;49.13;29.60;;;;;;;4.52;88.12;99654.36;1724695;81;25766;-78
2020/12/24 00:43:59;;;;;;;50.45;30.88;;;;;;;4.54;88.27;99655.52;1739188;81;25785;-79
2020/12/24 00:46:25;;;;;;;53.73;29.57;;;;;;;4.54;88.32;99649.05;1737819;80;25761;-81
2020/12/24 00:48:52;;;;;;;45.38;28.45;;;;;;;4.58;88.46;99640.87;1740028;81;25722;-78
2020/12/24 00:51:18;;;;;;;51.33;29.63;;;;;;;4.61;88.54;99637.15;1737878;81;25712;-81
2020/12/24 00:53:44;;;;;;;46.05;28.95;;;;;;;4.63;88.59;99637.34;1735494;81;25472;-81
2020/12/24 00:56:11;;;;;;;45.28;26.75;;;;;;;4.61;88.66;99639.28;1737628;81;26242;-81
2020/12/24 00:58:39;;;;;;;52.17;29.20;;;;;;;4.63;88.76;99639.93;1740248;80;26367;-81
2020/12/24 01:01:06;;;;;;;46.95;29.95;;;;;;;4.63;88.88;99636.05;1744166;81;25742;-81
2020/12/24 01:03:33;;;;;;;43.68;26.45;;;;;;;4.66;88.95;99640.96;1738049;81;26397;-78
2020/12/24 01:05:59;;;;;;;45.95;26.20;;;;;;;4.69;88.98;99637.23;1744114;81;26338;-78
2020/12/24 01:08:26;;;;;;;41.23;26.00;;;;;;;4.71;89.07;99639.21;1741431;81;25805;-78
2020/12/24 01:10:53;;;;;;;41.98;25.37;;;;;;;4.73;89.12;99632.61;1742094;81;26392;-78
2020/12/24 01:13:20;;;;;;;41.75;26.75;;;;;;;4.75;89.18;99631.51;1744580;81;25660;-78
2020/12/24 01:15:46;;;;;;;40.08;25.77;;;;;;;4.78;89.24;99616.97;1742817;81;25721;-78
2020/12/24 01:18:13;;;;;;;37.83;24.43;;;;;;;4.79;89.26;99614.70;1731786;81;25723;-78
2020/12/24 01:20:39;;;;;;;38.48;22.35;;;;;;;4.82;89.34;99608.42;1742598;81;25775;-77
2020/12/24 01:23:06;;;;;;;39.25;23.67;;;;;;;4.83;89.30;99598.42;1742944;81;25727;-78
2020/12/24 01:25:33;;;;;;;37.53;23.10;;;;;;;4.83;89.33;99590.17;1739087;81;25663;-78
2020/12/24 01:27:59;;;;;;;38.92;23.83;;;;;;;4.86;89.46;99574.83;1740713;81;25727;-79
2020/12/24 01:30:26;;;;;;;46.60;23.18;;;;;;;4.91;89.54;99568.73;1745311;80;25738;-78
2020/12/24 01:32:53;;;;;;;33.60;21.27;;;;;;;4.95;89.57;99560.17;1753494;80;25718;-78
2020/12/24 01:35:20;;;;;;;31.95;20.35;;;;;;;4.95;89.57;99551.91;1743931;80;26433;-78
2020/12/24 01:37:47;;;;;;;36.98;22.17;;;;;;;4.96;89.57;99543.66;1740765;81;25337;-78
2020/12/24 01:40:13;;;;;;;39.23;21.68;;;;;;;4.99;89.68;99535.59;1730756;81;25817;-79
2020/12/24 01:42:40;;;;;;;32.03;19.85;;;;;;;5.01;89.74;99531.09;1738978;81;25938;-78
2020/12/24 01:45:07;;;;;;;28.05;17.70;;;;;;;5.02;89.75;99521.05;1744794;81;25827;-78
2020/12/24 01:47:34;;;;;;;33.23;19.27;;;;;;;5.04;89.84;99513.45;1736432;81;25687;-78
2020/12/24 01:50:01;;;;;;;30.37;18.55;;;;;;;5.06;89.86;99495.20;1743606;81;26369;-78
2020/12/24 01:52:33;;;;;;;33.15;18.60;;;;;;;5.07;89.93;99490.33;1738366;81;25740;-79
2020/12/24 01:55:03;;;;;;;29.20;17.48;;;;;;;5.09;89.94;99478.86;1735556;81;25793;-78
2020/12/24 01:57:30;;;;;;;27.02;17.37;;;;;;;5.09;90.04;99475.47;1741802;80;25786;-78
2020/12/24 01:59:57;;;;;;;26.90;18.48;;;;;;;5.09;90.02;99475.47;1743820;81;25703;-79
2020/12/24 02:02:24;;;;;;;26.65;16.95;;;;;;;5.09;90.12;99461.22;1743129;81;25766;-78
2020/12/24 02:04:50;;;;;;;28.95;18.00;;;;;;;5.08;90.18;99457.83;1742282;80;25740;-79
2020/12/24 02:07:18;;;;;;;27.17;16.93;;;;;;;5.09;90.32;99453.45;1741908;81;25887;-78
2020/12/24 02:09:48;;;;;;;27.58;17.50;;;;;;;5.11;90.40;99443.76;1742419;81;26448;-78
2020/12/24 02:12:14;;;;;;;;;;;;;;;5.14;90.45;99437.47;1742561;81;25339;-79
2020/12/24 02:14:41;;;;;;;27.30;16.73;;;;;;;5.17;90.50;99435.86;1738335;81;25765;-79
2020/12/24 02:20:12;;;;;;;27.17;16.85;;;;;;;5.22;90.60;99420.67;1741342;81;25644;-78
2020/12/24 02:22:38;;;;;;;25.60;16.52;;;;;;;5.22;90.62;99412.91;1745046;81;26451;-78
2020/12/24 02:25:05;;;;;;;28.50;18.32;;;;;;;5.26;90.66;99418.09;1744362;81;25776;-79
2020/12/24 02:30:53;;;;;;;26.90;17.17;;;;;;;5.27;90.84;99415.36;1736929;81;25768;-79
2020/12/24 02:33:26;;;;;;;24.70;15.70;;;;;;;5.28;90.85;99413.57;1742667;81;25803;-79
2020/12/24 02:52:06;;;;;;;22.32;13.48;;;;;;;5.39;91.22;99369.25;1724517;81;25778;-79
2020/12/24 02:57:59;;;;;;;18.17;12.43;;;;;;;5.42;91.27;99357.27;1721658;81;25728;-78
2020/12/24 03:00:40;;;;;;;19.62;12.37;;;;;;;5.45;91.37;99354.36;1706876;82;25634;-78
2020/12/24 03:03:14;;;;;;;17.50;12.05;;;;;;;5.45;91.29;99346.59;1719758;82;25734;-78
2020/12/24 03:05:40;;;;;;;17.05;11.75;;;;;;;5.48;91.33;99339.83;1700648;82;26602;-78
2020/12/24 03:08:07;;;;;;;19.27;11.93;;;;;;;5.48;91.31;99345.01;1713053;82;25664;-78
2020/12/24 03:10:33;;;;;;;20.12;11.43;;;;;;;5.51;91.34;99339.51;1715268;82;25934;-78
2020/12/24 03:13:00;;;;;;;18.42;11.38;;;;;;;5.51;91.27;99333.48;1720846;82;26178;-78
2020/12/24 03:15:26;;;;;;;16.87;10.93;;;;;;;5.51;91.30;99339.51;1720298;82;26248;-79
2020/12/24 03:17:53;;;;;;;14.90;9.38;;;;;;;5.49;91.29;99336.74;1723495;81;26662;-79
2020/12/24 03:20:19;;;;;;;14.00;9.30;;;;;;;5.52;91.45;99334.64;1718998;82;25838;-79
2020/12/24 03:22:45;;;;;;;15.90;9.65;;;;;;;5.55;91.46;99326.55;1705704;82;26277;-79
2020/12/24 03:25:12;;;;;;;15.68;9.73;;;;;;;5.60;91.47;99323.98;1710284;82;25705;-79
2020/12/24 03:27:38;;;;;;;15.83;10.58;;;;;;;5.62;91.44;99318.13;1723878;81;25780;-79
2020/12/24 03:30:07;;;;;;;13.43;9.68;;;;;;;5.63;91.36;99315.88;1723812;82;25738;-78
2020/12/24 03:32:34;;;;;;;14.93;9.15;;;;;;;5.61;91.36;99315.22;1720777;81;25714;-78
2020/12/24 03:35:00;;;;;;;13.40;9.68;;;;;;;5.64;91.39;99305.34;1719644;82;25759;-78
2020/12/24 03:37:27;;;;;;;12.95;8.23;;;;;;;5.65;91.37;99299.69;1721398;82;25683;-79
2020/12/24 03:39:53;;;;;;;13.83;8.83;;;;;;;5.67;91.39;99296.43;1721855;82;26424;-79
2020/12/24 03:42:20;;;;;;;14.30;10.23;;;;;;;5.63;91.39;99301.14;1720468;82;25818;-79
2020/12/24 03:44:46;;;;;;;12.37;8.88;;;;;;;5.61;91.35;99299.18;1718604;82;25783;-78
2020/12/24 03:47:13;;;;;;;12.33;8.50;;;;;;;5.62;91.44;99287.86;1718179;82;25688;-79
2020/12/24 03:49:39;;;;;;;13.58;9.18;;;;;;;5.65;91.49;99275.06;1717833;82;26293;-79
2020/12/24 03:52:06;;;;;;;12.00;8.40;;;;;;;5.65;91.42;99280.25;1719082;81;25690;-79
2020/12/24 03:54:32;;;;;;;13.05;8.40;;;;;;;5.62;91.35;99271.02;1728288;82;25671;-79
2020/12/24 03:56:58;;;;;;;14.78;8.85;;;;;;;5.62;91.46;99273.61;1723429;81;25641;-79
2020/12/24 03:59:25;;;;;;;11.48;8.08;;;;;;;5.64;91.55;99279.41;1722929;81;25767;-78
2020/12/24 04:01:51;;;;;;;13.08;9.13;;;;;;;5.67;91.54;99271.80;1724755;82;25808;-78
2020/12/24 04:04:18;;;;;;;13.50;8.63;;;;;;;5.69;91.61;99256.91;1722385;82;26194;-78
2020/12/24 04:06:44;;;;;;;12.28;7.97;;;;;;;5.73;91.61;99243.97;1722352;82;25697;-78
2020/12/24 04:09:11;;;;;;;13.38;9.30;;;;;;;5.74;91.58;99248.98;1719686;82;25874;-79
2020/12/24 04:11:46;;;;;;;12.25;8.48;;;;;;;5.73;91.45;99241.38;1722439;81;25822;-79
2020/12/24 04:14:12;;;;;;;11.10;8.13;;;;;;;5.73;91.52;99238.78;1722400;81;25850;-78
2020/12/24 04:16:39;;;;;;;11.95;8.03;;;;;;;5.76;91.59;99231.48;1720776;82;26324;-78
2020/12/24 04:22:49;;;;;;;13.90;8.03;;;;;;;5.75;91.59;99218.67;1723579;81;25804;-78
2020/12/24 04:25:16;;;;;;;14.25;9.18;;;;;;;5.78;91.67;99192.41;1713561;82;25982;-79
2020/12/24 04:27:42;;;;;;;11.93;7.85;;;;;;;5.79;91.72;99184.48;1718413;82;26278;-79
2020/12/24 04:30:08;;;;;;;11.73;8.20;;;;;;;5.81;91.71;99193.41;1719878;82;25762;-79
2020/12/24 04:32:35;;;;;;;12.07;8.98;;;;;;;5.79;91.70;99201.34;1711044;81;25893;-79
2020/12/24 04:35:02;;;;;;;12.13;8.40;;;;;;;5.78;91.68;99202.32;1719839;81;25763;-78
2020/12/24 04:37:28;;;;;;;13.35;8.38;;;;;;;5.82;91.77;99212.36;1738398;81;25864;-79
2020/12/24 04:39:55;;;;;;;12.75;8.38;;;;;;;5.84;91.84;99204.75;1732774;81;26248;-79
2020/12/24 04:42:22;;;;;;;11.40;9.00;;;;;;;5.87;91.86;99203.13;1718750;81;25798;-79
2020/12/24 04:44:49;;;;;;;14.15;9.63;;;;;;;5.92;91.90;99198.72;1712301;80;25803;-79
2020/12/24 04:47:19;;;;;;;16.02;10.05;;;;;;;5.96;91.94;99192.28;1725421;82;25734;-79
2020/12/24 04:49:47;;;;;;;14.85;10.03;;;;;;;5.97;91.91;99186.94;1719200;82;25828;-79
2020/12/24 04:52:14;;;;;;;13.30;8.90;;;;;;;5.95;91.91;99184.99;1723870;82;25818;-81
2020/12/24 04:54:41;;;;;;;15.85;9.33;;;;;;;5.91;91.93;99191.44;1723672;81;25799;-78
2020/12/24 04:57:10;;;;;;;15.43;10.75;;;;;;;5.91;92.31;99208.29;1719635;82;25979;-79
2020/12/24 04:59:37;;;;;;;14.95;10.35;;;;;;;5.91;92.32;99184.15;1722734;82;25801;-78
2020/12/24 05:02:05;;;;;;;13.70;10.38;;;;;;;5.92;92.34;99174.09;1723614;82;25681;-79
2020/12/24 05:04:33;;;;;;;15.80;10.72;;;;;;;5.95;92.43;99181.10;1720196;81;25975;-79
2020/12/24 05:07:04;;;;;;;14.83;9.63;;;;;;;5.99;92.58;99175.89;1721826;82;25851;-79
2020/12/24 05:09:32;;;;;;;16.52;11.33;;;;;;;6.04;92.59;99167.63;1723653;81;25694;-78
2020/12/24 05:11:58;;;;;;;14.23;10.25;;;;;;;6.08;92.63;99168.91;1724464;82;25530;-78
2020/12/24 05:14:27;;;;;;;13.32;9.35;;;;;;;6.13;92.64;99165.33;1720527;82;25693;-79
2020/12/24 05:17:04;;;;;;;14.55;10.78;;;;;;;6.17;92.63;99155.45;1721868;82;25688;-79
2020/12/24 05:19:48;;;;;;;13.83;10.48;;;;;;;6.20;92.54;99152.02;1715485;82;25723;-78
2020/12/24 05:22:18;;;;;;;13.60;9.28;;;;;;;6.25;92.59;99152.00;1721655;82;25761;-78
2020/12/24 05:24:46;;;;;;;16.62;10.45;;;;;;;6.27;92.49;99152.16;1714763;81;25733;-78
2020/12/24 05:27:21;;;;;;;13.22;9.70;;;;;;;6.27;92.38;99156.05;1704507;82;26236;-78
2020/12/24 05:29:52;;;;;;;15.23;10.48;;;;;;;6.28;92.43;99155.58;1726095;81;25469;-79
2020/12/24 05:32:30;;;;;;;14.75;10.80;;;;;;;6.30;92.58;99160.09;1721433;82;26474;-79
2020/12/24 05:35:10;;;;;;;15.83;10.93;;;;;;;6.33;92.65;99161.05;1702906;81;25930;-79
2020/12/24 05:37:37;;;;;;;17.48;12.40;;;;;;;6.36;92.71;99160.25;1714689;82;26344;-79
2020/12/24 05:40:26;;;;;;;16.93;11.48;;;;;;;6.41;92.89;99151.48;1721626;82;25762;-79
2020/12/24 05:42:57;;;;;;;18.15;11.00;;;;;;;6.45;92.90;99148.05;1723596;82;25902;-79
2020/12/24 05:45:32;;;;;;;14.30;10.72;;;;;;;6.53;93.07;99147.22;1724800;81;25889;-79
2020/12/24 05:48:09;;;;;;;17.57;12.33;;;;;;;6.59;93.09;99147.33;1713020;82;25745;-79
2020/12/24 05:50:36;;;;;;;18.25;11.48;;;;;;;6.64;93.13;99158.02;1707987;82;25715;-79
2020/12/24 05:53:13;;;;;;;16.12;10.15;;;;;;;6.64;93.00;99157.22;1715406;81;25341;-79
2020/12/24 05:55:42;;;;;;;15.32;10.95;;;;;;;6.65;93.05;99159.62;1712283;82;25696;-79
2020/12/24 05:58:09;;;;;;;18.00;12.20;;;;;;;6.70;93.13;99150.54;1711549;82;25920;-79
2020/12/24 06:00:41;;;;;;;18.02;11.90;;;;;;;6.75;93.17;99144.35;1698731;83;25699;-79
2020/12/24 06:03:19;;;;;;;15.90;11.03;;;;;;;6.76;93.05;99144.16;1697873;83;25752;-79
2020/12/24 06:05:59;;;;;;;16.25;10.88;;;;;;;6.79;93.21;99143.84;1702149;83;25945;-79
2020/12/24 06:08:29;;;;;;;15.75;11.12;;;;;;;6.84;93.23;99135.52;1695212;83;25780;-79
2020/12/24 06:11:07;;;;;;;14.15;9.90;;;;;;;6.91;93.37;99140.36;1698245;83;26981;-79
2020/12/24 06:13:47;;;;;;;15.78;11.85;;;;;;;6.96;93.33;99130.77;1696221;83;25711;-78
2020/12/24 06:16:15;;;;;;;16.37;11.37;;;;;;;7.00;93.39;99132.03;1697665;82;26254;-79
2020/12/24 06:18:45;;;;;;;18.37;11.35;;;;;;;7.06;93.42;99128.73;1702241;82;25810;-79
2020/12/24 06:21:21;;;;;;;17.62;11.05;;;;;;;7.13;93.47;99130.16;1697500;83;26757;-79
2020/12/24 06:23:55;;;;;;;19.42;13.62;;;;;;;7.16;93.46;99122.83;1700545;83;26724;-79
2020/12/24 06:26:33;;;;;;;18.35;11.85;;;;;;;7.20;93.50;99121.98;1701574;83;26269;-79
2020/12/24 06:29:02;;;;;;;16.07;11.88;;;;;;;7.27;93.63;99139.80;1688508;83;25780;-78
2020/12/24 06:31:31;;;;;;;18.00;11.43;;;;;;;7.32;93.78;99138.30;1695525;83;25825;-79
2020/12/24 06:33:57;;;;;;;18.92;11.38;;;;;;;7.39;93.80;99140.19;1683514;83;25747;-78
2020/12/24 06:36:37;;;;;;;17.75;12.15;;;;;;;7.46;94.01;99134.63;1677124;82;25820;-78
2020/12/24 06:39:05;;;;;;;17.77;12.10;;;;;;;7.55;94.12;99142.66;1679226;84;31486;-78
2020/12/24 06:41:38;;;;;;;19.32;12.85;;;;;;;7.61;94.26;99138.55;1687180;83;25862;-78
2020/12/24 06:44:06;;;;;;;16.70;11.88;;;;;;;7.70;94.63;99131.81;1700647;83;25871;-78
2020/12/24 06:47:00;;;;;;;15.25;11.15;;;;;;;7.79;95.04;99132.53;1703782;82;25816;-78
2020/12/24 06:49:32;;;;;;;16.10;12.68;;;;;;;7.94;96.30;99129.47;1702451;83;26662;-78
2020/12/24 06:51:59;;;;;;;16.75;12.20;;;;;;;8.10;96.28;99124.59;1676638;84;25741;-78
2020/12/24 06:54:28;;;;;;;14.65;11.43;;;;;;;8.22;96.39;99133.55;1682182;84;25668;-78
2020/12/24 06:57:25;;;;;;;16.17;10.35;;;;;;;8.30;96.18;99130.05;1689007;84;25756;-78
2020/12/24 07:00:19;;;;;;;17.40;10.75;;;;;;;8.42;97.11;99123.41;1707381;81;26360;-79
2020/12/24 07:02:51;;;;;;;14.70;9.63;;;;;;;8.57;96.95;99128.61;1720146;81;26530;-78
2020/12/24 07:05:43;;;;;;;15.55;10.15;;;;;;;8.65;96.85;99128.51;1715053;82;26383;-79
2020/12/24 07:08:31;;;;;;;12.30;8.83;;;;;;;8.72;96.75;99130.38;1642512;85;25816;-80
2020/12/24 07:10:59;;;;;;;11.65;9.03;;;;;;;8.82;97.13;99129.09;1628922;85;26031;-81
2020/12/24 07:13:41;;;;;;;11.28;8.05;;;;;;;8.94;97.35;99120.78;1637370;85;25822;-81
2020/12/24 07:16:10;;;;;;;10.53;7.80;;;;;;;9.03;97.66;99117.06;1643540;85;25888;-81
2020/12/24 07:18:41;;;;;;;10.43;8.48;;;;;;;9.10;97.31;99108.81;1633794;85;25812;-81
2020/12/24 07:21:11;;;;;;;12.73;8.65;;;;;;;9.15;96.99;99105.66;1644140;85;25905;-81
2020/12/24 07:23:40;;;;;;;11.93;7.33;;;;;;;9.17;96.83;99109.70;1642724;85;26506;-81
2020/12/24 07:26:10;;;;;;;9.90;7.30;;;;;;;9.23;96.90;99115.46;1643159;85;25944;-81
2020/12/24 07:28:39;;;;;;;10.90;7.28;;;;;;;9.29;96.96;99121.22;1644016;85;25847;-81
2020/12/24 07:31:11;;;;;;;10.87;6.80;;;;;;;9.33;96.83;99126.39;1642987;85;25956;-81
2020/12/24 07:33:46;;;;;;;10.68;7.33;;;;;;;9.38;96.74;99127.11;1642769;85;26511;-81
2020/12/24 07:36:13;;;;;;;11.30;7.37;;;;;;;9.44;96.92;99128.16;1640862;85;25926;-79
2020/12/24 07:38:39;;;;;;;10.40;6.55;;;;;;;9.50;97.04;99136.56;1641289;85;25831;-79
2020/12/24 07:41:16;;;;;;;11.50;7.22;;;;;;;9.54;96.92;99133.36;1641939;85;26431;-79
2020/12/24 07:43:42;;;;;;;13.13;8.15;;;;;;;9.58;96.72;99135.62;1717734;81;26410;-79
2020/12/24 07:46:09;;;;;;;9.63;6.78;;;;;;;9.62;96.72;99135.03;1717740;81;25807;-79
2020/12/24 07:48:36;;;;;;;10.05;7.03;;;;;;;9.65;96.56;99133.34;1721321;82;25738;-79
2020/12/24 07:51:09;;;;;;;11.53;7.05;;;;;;;9.68;96.33;99139.99;1722556;82;25818;-79
2020/12/24 07:53:36;;;;;;;10.03;6.35;;;;;;;9.71;96.45;99133.92;1721634;82;26955;-79
2020/12/24 07:56:08;;;;;;;14.53;7.33;;;;;;;9.75;96.34;99133.83;1719057;81;25810;-79
2020/12/24 07:58:36;;;;;;;12.07;7.45;;;;;;;9.77;96.16;99142.79;1721019;82;26462;-79
2020/12/24 08:01:05;;;;;;;12.23;6.55;;;;;;;9.78;96.14;99145.70;1719743;82;25754;-79
2020/12/24 08:03:32;;;;;;;11.25;7.33;;;;;;;9.79;95.96;99148.60;1721425;82;25754;-79
2020/12/24 08:06:05;;;;;;;12.53;7.30;;;;;;;9.80;95.85;99154.15;1721649;82;26485;-79
2020/12/24 08:08:35;;;;;;;9.48;6.95;;;;;;;9.82;95.83;99156.08;1720562;82;25775;-79
2020/12/24 08:11:01;;;;;;;11.83;7.50;;;;;;;9.82;95.71;99157.38;1720982;82;25717;-79
2020/12/24 08:13:27;;;;;;;11.60;6.75;;;;;;;9.84;95.67;99159.28;1725446;81;26453;-79
2020/12/24 08:15:56;;;;;;;11.70;6.37;;;;;;;9.86;95.77;99157.80;1723993;81;25745;-78
2020/12/24 08:18:27;;;;;;;10.53;6.92;;;;;;;9.87;95.64;99156.29;1722168;81;26574;-79
2020/12/24 08:20:58;;;;;;;9.60;5.72;;;;;;;9.89;95.51;99148.28;1718437;82;25746;-79
2020/12/24 08:23:50;;;;;;;9.65;5.67;;;;;;;9.89;95.46;99160.83;1719885;82;25748;-79
2020/12/24 08:26:18;;;;;;;10.18;6.78;;;;;;;9.90;95.48;99162.46;1722100;81;25771;-79
2020/12/24 08:29:00;;;;;;;9.03;5.75;;;;;;;9.90;95.45;99178.13;1724186;82;25617;-79
2020/12/24 08:31:28;;;;;;;9.40;6.05;;;;;;;9.90;95.44;99180.73;1718847;82;25868;-78
2020/12/24 08:33:56;;;;;;;11.73;6.40;;;;;;;9.92;95.41;99176.11;1703591;79;55733;-86
2020/12/24 08:36:28;;;;;;;8.25;5.53;;;;;;;9.92;95.35;99166.97;1709938;81;25838;-86
2020/12/24 08:39:07;;;;;;;10.80;6.12;;;;;;;9.93;95.35;99169.91;1709764;81;25722;-86
2020/12/24 08:44:07;;;;;;;11.30;5.40;;;;;;;9.93;95.26;99164.69;1575539;89;26493;-85
2020/12/24 08:46:34;;;;;;;8.75;5.62;;;;;;;9.95;95.22;99154.04;1583921;89;25801;-86
2020/12/24 08:49:25;;;;;;;10.50;5.92;;;;;;;9.94;95.14;99162.87;1595819;87;26004;-86
2020/12/24 08:52:10;;;;;;;9.65;6.40;;;;;;;9.96;95.16;99171.33;1603238;88;25899;-86
2020/12/24 08:54:37;;;;;;;8.68;5.80;;;;;;;9.97;95.15;99161.98;1592777;88;25806;-86
2020/12/24 08:57:08;;;;;;;10.03;5.83;;;;;;;10.00;95.15;99170.73;1598762;88;25801;-88
2020/12/24 08:59:34;;;;;;;9.18;5.90;;;;;;;10.03;95.06;99175.28;1590613;88;26028;-87
2020/12/24 09:02:01;;;;;;;10.00;6.17;;;;;;;10.04;94.97;99167.27;1595356;88;25909;-87
2020/12/24 09:04:27;;;;;;;9.85;6.03;;;;;;;10.07;94.94;99167.39;1583269;89;25870;-85
2020/12/24 09:06:54;;;;;;;10.00;5.58;;;;;;;10.07;94.87;99163.47;1581254;88;25805;-86
2020/12/24 09:09:26;;;;;;;9.68;6.22;;;;;;;10.09;94.79;99159.64;1604287;87;26038;-87
2020/12/24 09:11:54;;;;;;;10.85;5.95;;;;;;;10.12;94.65;99161.06;1605074;86;26655;-87
2020/12/24 09:14:23;;;;;;;11.35;6.05;;;;;;;10.14;94.62;99156.47;1611262;86;25824;-87
2020/12/24 09:17:01;;;;;;;8.20;5.65;;;;;;;10.16;94.42;99157.89;1592553;88;25738;-85
2020/12/24 09:31:57;;;;;;;12.98;6.40;;;;;;;10.63;92.70;99117.65;1842244;75;34106;-85
2020/12/24 09:34:25;;;;;;;9.08;5.72;;;;;;;10.57;92.54;99115.32;1823436;77;25764;-84
2020/12/24 09:49:27;;;;;;;8.53;5.70;;;;;;;10.76;91.53;99132.58;1802189;77;34702;-90
2020/12/24 09:51:53;;;;;;;9.68;5.22;;;;;;;10.67;91.53;99128.03;1787642;78;25666;-91
2020/12/24 09:54:20;;;;;;;10.23;6.33;;;;;;;10.61;91.66;99125.70;1794349;78;26520;-90
2020/12/24 09:56:46;;;;;;;9.45;5.53;;;;;;;10.56;91.68;99133.83;1791402;78;25775;-90
2020/12/24 09:59:13;;;;;;;10.35;5.70;;;;;;;10.52;91.75;99128.16;1795023;78;25790;-89
2020/12/24 10:01:39;;;;;;;10.95;5.72;;;;;;;10.49;91.80;99129.06;1791418;78;26391;-90
2020/12/24 10:04:06;;;;;;;10.88;5.72;;;;;;;10.47;91.89;99119.30;1791707;78;25733;-89
2020/12/24 10:06:32;;;;;;;9.13;4.95;;;;;;;10.44;91.87;99120.49;1792939;78;25803;-90
2020/12/24 10:08:58;;;;;;;11.00;4.83;;;;;;;10.41;91.76;99121.69;1795638;78;25923;-90
2020/12/24 10:11:25;;;;;;;8.05;4.65;;;;;;;10.40;91.86;99123.20;1785733;78;25794;-89
2020/12/24 10:13:51;;;;;;;8.55;5.33;;;;;;;10.39;91.67;99126.80;1796216;78;25684;-90
2020/12/24 10:16:21;;;;;;;9.48;5.15;;;;;;;10.39;91.63;99127.62;1765178;79;25702;-90
2020/12/24 10:18:48;;;;;;;7.75;5.08;;;;;;;10.38;91.73;99117.36;1765706;79;25859;-90
2020/12/24 10:21:14;;;;;;;11.40;5.17;;;;;;;10.38;91.72;99122.58;1783230;78;25294;-90
2020/12/24 10:23:40;;;;;;;10.03;4.85;;;;;;;10.36;91.50;99121.45;1786962;78;26403;-90
2020/12/24 10:26:07;;;;;;;11.33;5.42;;;;;;;10.37;91.64;99120.98;1782013;78;26332;-91
2020/12/24 10:28:33;;;;;;;10.72;5.72;;;;;;;10.36;91.54;99131.91;1780914;79;25731;-89
2020/12/24 10:31:00;;;;;;;8.65;4.58;;;;;;;10.35;91.55;99130.30;1739387;80;25800;-90
2020/12/24 10:33:26;;;;;;;9.85;4.75;;;;;;;10.35;91.40;99128.20;1786820;79;25697;-89
2020/12/24 10:35:52;;;;;;;9.28;5.10;;;;;;;10.35;91.56;99119.06;1785486;78;25871;-91
2020/12/24 10:38:19;;;;;;;6.80;4.25;;;;;;;10.37;91.43;99127.52;1782813;78;26413;-90
2020/12/24 10:40:46;;;;;;;9.20;4.47;;;;;;;10.37;91.40;99128.81;1782445;78;25677;-90
2020/12/24 10:43:12;;;;;;;8.80;4.35;;;;;;;10.36;91.16;99112.82;1783113;78;25917;-90
2020/12/24 10:45:40;;;;;;;8.33;4.60;;;;;;;10.36;91.23;99130.59;1776345;78;26163;-90
2020/12/24 10:48:06;;;;;;;8.28;4.70;;;;;;;10.38;91.19;99117.36;1774258;79;25873;-89
2020/12/24 10:50:33;;;;;;;9.08;4.75;;;;;;;10.40;91.07;99099.70;1741886;80;25752;-89
2020/12/24 10:52:59;;;;;;;8.20;4.45;;;;;;;10.42;91.13;99100.28;1735591;80;25732;-89
2020/12/24 10:55:26;;;;;;;8.60;4.70;;;;;;;10.42;91.04;99100.28;1711516;82;25940;-89
2020/12/24 10:57:52;;;;;;;9.98;4.12;;;;;;;10.40;90.79;99109.64;1757856;79;27056;-89
2020/12/24 11:00:19;;;;;;;11.48;4.28;;;;;;;10.41;90.75;99103.40;1736458;80;26388;-89
2020/12/24 11:02:45;;;;;;;10.82;4.85;;;;;;;10.42;90.66;99102.42;1736105;80;25794;-89
2020/12/24 11:05:12;;;;;;;9.55;5.17;;;;;;;10.43;90.58;99094.08;1737435;80;26401;-90
2020/12/24 11:07:38;;;;;;;9.38;4.70;;;;;;;10.43;90.54;99088.85;1737550;80;25645;-90
2020/12/24 11:10:05;;;;;;;9.53;4.58;;;;;;;10.45;90.57;99090.78;1740826;80;26322;-90
2020/12/24 11:12:31;;;;;;;9.88;4.20;;;;;;;10.48;90.23;99096.11;1735697;80;25861;-90
2020/12/24 11:14:58;;;;;;;8.10;4.47;;;;;;;10.48;89.75;99098.72;1734063;80;26133;-89
2020/12/24 11:17:24;;;;;;;8.48;4.60;;;;;;;10.48;89.34;99100.03;1756640;79;25901;-90
2020/12/24 11:19:51;;;;;;;8.03;4.53;;;;;;;10.46;89.51;99092.38;1738701;80;25836;-90
2020/12/24 11:22:18;;;;;;;9.03;4.92;;;;;;;10.46;89.59;99088.45;1739109;80;25794;-90
2020/12/24 11:24:44;;;;;;;10.93;5.33;;;;;;;10.44;89.27;99085.23;1741679;80;25724;-89
2020/12/24 11:27:11;;;;;;;8.43;4.28;;;;;;;10.45;89.47;99079.02;1758868;79;26312;-90
2020/12/24 11:29:37;;;;;;;7.10;4.72;;;;;;;10.44;89.51;99078.19;1756307;79;26459;-91
2020/12/24 11:32:04;;;;;;;10.18;4.83;;;;;;;10.43;89.25;99066.65;1710369;82;25736;-90
2020/12/24 11:34:31;;;;;;;10.78;5.08;;;;;;;10.42;89.50;99064.55;1751734;80;25718;-90
2020/12/24 11:36:58;;;;;;;10.90;5.15;;;;;;;10.41;89.16;99054.28;1751199;80;25779;-89
2020/12/24 11:39:25;;;;;;;10.15;5.33;;;;;;;10.43;89.40;99051.77;1753655;80;25827;-91
2020/12/24 11:41:52;;;;;;;7.67;4.80;;;;;;;10.44;89.47;99042.13;1735742;80;25817;-90
2020/12/24 11:44:19;;;;;;;8.40;5.12;;;;;;;10.42;88.91;99036.28;1762289;80;25705;-90
2020/12/24 11:46:45;;;;;;;12.68;4.87;;;;;;;10.43;88.98;99034.00;1746172;80;26378;-91
2020/12/24 11:49:12;;;;;;;8.33;5.17;;;;;;;10.42;89.10;99013.61;1760864;80;26072;-91
2020/12/24 11:51:38;;;;;;;9.73;4.87;;;;;;;10.43;89.09;99021.73;1752702;80;25796;-91
2020/12/24 11:54:04;;;;;;;10.15;5.25;;;;;;;10.43;89.14;99036.10;1751409;80;25784;-90
2020/12/24 11:56:31;;;;;;;10.13;5.35;;;;;;;10.43;89.12;99037.91;1740470;81;26248;-90
2020/12/24 11:58:57;;;;;;;8.83;5.12;;;;;;;10.42;89.10;99042.34;1736290;80;25900;-91
2020/12/24 12:01:24;;;;;;;11.00;5.10;;;;;;;10.42;89.03;99042.34;1708195;81;25872;-90
2020/12/24 12:03:52;;;;;;;10.15;5.50;;;;;;;10.42;88.70;99048.04;1708233;82;26353;-90
2020/12/24 12:06:19;;;;;;;10.15;4.90;;;;;;;10.41;88.04;99054.28;1736275;80;25753;-91
2020/12/24 12:08:47;;;;;;;10.10;5.12;;;;;;;10.41;88.24;99043.33;1739611;81;25776;-91
2020/12/24 12:11:14;;;;;;;9.15;5.22;;;;;;;10.42;87.82;99051.48;1762629;80;25752;-90
2020/12/24 12:13:41;;;;;;;9.33;5.28;;;;;;;10.42;87.82;99047.56;1734677;80;25764;-90
2020/12/24 12:16:10;;;;;;;10.05;4.75;;;;;;;10.42;85.85;99056.70;1739634;80;25824;-91
2020/12/24 12:18:36;;;;;;;9.20;5.37;;;;;;;10.47;86.19;99067.05;1699974;82;26058;-90
2020/12/24 12:21:04;;;;;;;10.13;5.42;;;;;;;10.43;84.65;99058.81;1751788;80;26500;-89
2020/12/24 12:23:31;;;;;;;9.88;5.53;;;;;;;10.39;84.91;99073.25;1749856;81;25819;-91
2020/12/24 12:25:58;;;;;;;9.25;4.05;;;;;;;10.33;84.96;99077.95;1758381;80;26039;-90
2020/12/24 12:28:24;;;;;;;7.22;3.30;;;;;;;10.22;85.12;99082.70;1756506;79;25739;-91
2020/12/24 12:30:50;;;;;;;6.37;3.40;;;;;;;10.09;85.00;99081.83;1753593;79;26517;-90
2020/12/24 12:33:17;;;;;;;8.58;5.33;;;;;;;9.92;85.08;99079.53;1758189;79;25745;-91